createdAt,value
2018-07-07T00:00:34.724Z,99599.00
2018-07-07T00:02:38.881Z,99610.00
2018-07-07T00:04:42.730Z,99601.00
2018-07-07T00:06:46.172Z,99599.00
2018-07-07T00:08:49.808Z,99602.00
2018-07-07T00:10:56.316Z,99607.00
2018-07-07T00:13:01.060Z,99601.00
2018-07-07T00:15:17.893Z,99602.00
2018-07-07T00:21:36.920Z,99604.00
2018-07-07T00:23:40.873Z,99610.00
2018-07-07T00:31:59.364Z,99601.00
2018-07-07T00:34:13.513Z,99602.00
2018-07-07T00:36:29.693Z,99602.00
2018-07-07T00:38:34.015Z,99590.00
2018-07-07T00:40:38.253Z,99594.00
2018-07-07T00:42:41.949Z,99605.00
2018-07-07T00:44:45.753Z,99600.00
2018-07-07T00:46:50.394Z,99607.00
2018-07-07T00:48:54.305Z,99603.00
2018-07-07T00:50:57.954Z,99605.00
2018-07-07T00:53:01.475Z,99613.00
2018-07-07T00:55:08.282Z,99603.00
2018-07-07T00:57:14.994Z,99603.00
2018-07-07T00:59:21.928Z,99609.00
2018-07-07T01:01:28.707Z,99607.00
2018-07-07T01:03:32.696Z,99609.00
2018-07-07T01:05:37.457Z,99610.00
2018-07-07T01:07:45.818Z,99608.00
2018-07-07T01:09:49.831Z,99606.00
2018-07-07T01:11:56.074Z,99601.00
2018-07-07T01:13:59.996Z,99606.00
2018-07-07T01:16:05.514Z,99609.00
2018-07-07T01:18:12.720Z,99608.00
2018-07-07T01:20:17.448Z,99607.00
2018-07-07T01:22:24.143Z,99607.00
2018-07-07T01:24:28.647Z,99608.00
2018-07-07T01:26:33.027Z,99609.00
2018-07-07T01:28:36.643Z,99611.00
2018-07-07T01:30:40.571Z,99610.00
2018-07-07T01:32:44.356Z,99613.00
2018-07-07T01:34:48.190Z,99611.00
2018-07-07T01:36:52.588Z,99612.00
2018-07-07T01:38:56.181Z,99615.00
2018-07-07T01:41:00.508Z,99619.00
2018-07-07T01:43:04.484Z,99618.00
2018-07-07T01:45:12.157Z,99624.00
2018-07-07T01:47:17.425Z,99612.00
2018-07-07T01:49:23.170Z,99606.00
2018-07-07T01:51:27.056Z,99612.00
2018-07-07T01:53:31.336Z,99603.00
2018-07-07T01:55:35.301Z,99608.00
2018-07-07T01:57:39.158Z,99613.00
2018-07-07T01:59:43.464Z,99615.00
2018-07-07T02:01:47.417Z,99617.00
2018-07-07T02:03:51.001Z,99610.00
2018-07-07T02:05:55.255Z,99621.00
2018-07-07T02:07:58.786Z,99620.00
2018-07-07T02:10:02.664Z,99620.00
2018-07-07T02:12:09.706Z,99619.00
2018-07-07T02:14:16.425Z,99625.00
2018-07-07T02:16:24.027Z,99622.00
2018-07-07T02:18:31.139Z,99621.00
2018-07-07T02:20:36.891Z,99618.00
2018-07-07T02:22:42.336Z,99621.00
2018-07-07T02:24:47.986Z,99621.00
2018-07-07T02:26:51.597Z,99620.00
2018-07-07T02:28:55.240Z,99618.00
2018-07-07T02:30:59.054Z,99623.00
2018-07-07T02:33:02.458Z,99627.00
2018-07-07T02:35:06.334Z,99629.00
2018-07-07T02:37:13.714Z,99629.00
2018-07-07T02:39:18.919Z,99633.00
2018-07-07T02:41:23.160Z,99632.00
2018-07-07T02:43:26.562Z,99639.00
2018-07-07T02:45:29.974Z,99641.00
2018-07-07T02:47:33.550Z,99643.00
2018-07-07T02:49:37.504Z,99642.00
2018-07-07T02:51:41.022Z,99649.00
2018-07-07T02:53:44.495Z,99650.00
2018-07-07T02:55:48.279Z,99653.00
2018-07-07T02:57:51.865Z,99659.00
2018-07-07T02:59:55.701Z,99655.00
2018-07-07T03:01:59.935Z,99659.00
2018-07-07T03:04:03.955Z,99657.00
2018-07-07T03:06:11.810Z,99655.00
2018-07-07T03:08:17.410Z,99657.00
2018-07-07T03:10:24.528Z,99658.00
2018-07-07T03:12:29.379Z,99655.00
2018-07-07T03:14:33.070Z,99661.00
2018-07-07T03:16:36.532Z,99660.00
2018-07-07T03:18:40.193Z,99659.00
2018-07-07T03:20:44.303Z,99664.00
2018-07-07T03:22:48.129Z,99666.00
2018-07-07T03:24:51.565Z,99669.00
2018-07-07T03:26:55.749Z,99667.00
2018-07-07T03:28:59.308Z,99668.00
2018-07-07T03:31:03.138Z,99664.00
2018-07-07T03:33:10.522Z,99671.00
2018-07-07T03:35:16.456Z,99673.00
2018-07-07T03:37:23.027Z,99675.00
2018-07-07T03:39:27.055Z,99684.00
2018-07-07T03:41:30.703Z,99686.00
2018-07-07T03:43:34.318Z,99687.00
2018-07-07T03:45:38.060Z,99689.00
2018-07-07T03:47:41.511Z,99690.00
2018-07-07T03:49:45.029Z,99691.00
2018-07-07T03:53:15.485Z,99694.00
2018-07-07T03:55:21.050Z,99697.00
2018-07-07T03:57:25.910Z,99709.00
2018-07-07T03:59:29.291Z,99709.00
2018-07-07T04:01:33.250Z,99705.00
2018-07-07T04:03:36.795Z,99708.00
2018-07-07T04:05:40.473Z,99707.00
2018-07-07T04:07:44.117Z,99712.00
2018-07-07T04:09:48.059Z,99709.00
2018-07-07T04:11:51.579Z,99710.00
2018-07-07T04:13:55.598Z,99714.00
2018-07-07T04:15:59.947Z,99712.00
2018-07-07T04:18:03.576Z,99717.00
2018-07-07T04:20:11.109Z,99715.00
2018-07-07T04:22:17.002Z,99719.00
2018-07-07T04:24:25.599Z,99726.00
2018-07-07T04:26:29.019Z,99725.00
2018-07-07T04:28:32.597Z,99725.00
2018-07-07T04:30:36.434Z,99727.00
2018-07-07T04:32:39.866Z,99715.00
2018-07-07T04:34:43.271Z,99711.00
2018-07-07T04:36:46.971Z,99722.00
2018-07-07T04:38:50.910Z,99722.00
2018-07-07T04:40:54.450Z,99727.00
2018-07-07T04:42:58.367Z,99726.00
2018-07-07T04:45:01.751Z,99717.00
2018-07-07T04:47:06.370Z,99721.00
2018-07-07T04:49:14.342Z,99729.00
2018-07-07T04:51:20.993Z,99722.00
2018-07-07T04:53:24.991Z,99731.00
2018-07-07T04:55:28.700Z,99725.00
2018-07-07T04:57:32.456Z,99726.00
2018-07-07T04:59:36.032Z,99719.00
2018-07-07T05:01:39.846Z,99724.00
2018-07-07T05:03:43.540Z,99722.00
2018-07-07T05:05:47.544Z,99722.00
2018-07-07T05:07:51.590Z,99726.00
2018-07-07T05:09:55.027Z,99728.00
2018-07-07T05:11:58.682Z,99729.00
2018-07-07T05:14:02.217Z,99735.00
2018-07-07T05:16:07.337Z,99729.00
2018-07-07T05:18:11.148Z,99729.00
2018-07-07T05:20:17.810Z,99730.00
2018-07-07T05:22:22.949Z,99731.00
2018-07-07T05:24:26.603Z,99732.00
2018-07-07T05:26:31.024Z,99739.00
2018-07-07T05:28:35.159Z,99729.00
2018-07-07T05:30:38.753Z,99731.00
2018-07-07T05:32:42.614Z,99732.00
2018-07-07T05:34:46.067Z,99737.00
2018-07-07T05:36:49.542Z,99730.00
2018-07-07T05:38:53.745Z,99729.00
2018-07-07T05:40:57.458Z,99728.00
2018-07-07T05:43:00.931Z,99728.00
2018-07-07T05:45:06.253Z,99736.00
2018-07-07T05:47:13.255Z,99736.00
2018-07-07T05:49:18.936Z,99741.00
2018-07-07T05:51:25.428Z,99743.00
2018-07-07T05:53:28.819Z,99750.00
2018-07-07T05:55:32.261Z,99752.00
2018-07-07T05:57:35.944Z,99756.00
2018-07-07T05:59:39.386Z,99758.00
2018-07-07T06:01:42.774Z,99752.00
2018-07-07T06:03:47.082Z,99763.00
2018-07-07T06:05:50.593Z,99749.00
2018-07-07T06:07:54.519Z,99752.00
2018-07-07T06:09:57.908Z,99756.00
2018-07-07T06:12:02.053Z,99759.00
2018-07-07T06:14:08.343Z,99755.00
2018-07-07T06:16:16.599Z,99752.00
2018-07-07T06:18:22.590Z,99768.00
2018-07-07T06:20:26.744Z,99753.00
2018-07-07T06:22:30.913Z,99760.00
2018-07-07T06:24:34.441Z,99757.00
2018-07-07T06:26:38.176Z,99746.00
2018-07-07T06:28:42.369Z,99766.00
2018-07-07T06:30:46.274Z,99761.00
2018-07-07T06:32:50.078Z,99768.00
2018-07-07T06:34:53.493Z,99767.00
2018-07-07T06:36:56.988Z,99761.00
2018-07-07T06:39:00.946Z,99770.00
2018-07-07T06:41:05.443Z,99756.00
2018-07-07T06:43:13.097Z,99757.00
2018-07-07T06:45:19.118Z,99758.00
2018-07-07T06:47:23.503Z,99762.00
2018-07-07T06:49:26.891Z,99758.00
2018-07-07T06:51:30.353Z,99753.00
2018-07-07T06:53:34.535Z,99751.00
2018-07-07T06:55:38.105Z,99754.00
2018-07-07T06:57:41.795Z,99744.00
2018-07-07T06:59:45.445Z,99749.00
2018-07-07T07:01:49.529Z,99749.00
2018-07-07T07:03:53.400Z,99744.00
2018-07-07T07:05:57.293Z,99748.00
2018-07-07T07:08:00.871Z,99746.00
2018-07-07T07:10:06.075Z,99748.00
2018-07-07T07:12:14.314Z,99755.00
2018-07-07T07:14:21.054Z,99745.00
2018-07-07T07:16:25.875Z,99744.00
2018-07-07T07:18:29.937Z,99748.00
2018-07-07T07:20:33.394Z,99741.00
2018-07-07T07:22:37.545Z,99743.00
2018-07-07T07:24:41.750Z,99744.00
2018-07-07T07:26:45.889Z,99742.00
2018-07-07T07:28:50.592Z,99743.00
2018-07-07T07:31:00.609Z,99741.00
2018-07-07T07:33:05.199Z,99741.00
2018-07-07T07:35:13.194Z,99742.00
2018-07-07T07:37:18.646Z,99744.00
2018-07-07T07:39:25.874Z,99735.00
2018-07-07T07:41:29.437Z,99738.00
2018-07-07T07:43:36.771Z,99735.00
2018-07-07T07:45:40.293Z,99746.00
2018-07-07T07:47:44.375Z,99744.00
2018-07-07T07:49:48.180Z,99734.00
2018-07-07T07:51:51.737Z,99737.00
2018-07-07T07:53:55.638Z,99737.00
2018-07-07T07:56:02.373Z,99744.00
2018-07-07T07:58:09.544Z,99740.00
2018-07-07T08:00:17.631Z,99731.00
2018-07-07T08:02:33.982Z,99732.00
2018-07-07T08:04:37.515Z,99727.00
2018-07-07T08:06:41.395Z,99742.00
2018-07-07T08:08:45.756Z,99730.00
2018-07-07T08:10:50.967Z,99720.00
2018-07-07T08:12:54.624Z,99725.00
2018-07-07T08:14:58.155Z,99727.00
2018-07-07T08:17:01.792Z,99735.00
2018-07-07T08:19:07.218Z,99741.00
2018-07-07T08:21:16.893Z,99729.00
2018-07-07T08:23:27.394Z,99724.00
2018-07-07T08:25:31.231Z,99735.00
2018-07-07T08:27:35.077Z,99734.00
2018-07-07T08:29:39.667Z,99731.00
2018-07-07T08:31:44.234Z,99732.00
2018-07-07T08:33:50.580Z,99738.00
2018-07-07T08:35:54.739Z,99728.00
2018-07-07T08:38:05.379Z,99738.00
2018-07-07T08:40:17.384Z,99728.00
2018-07-07T08:42:28.389Z,99737.00
2018-07-07T08:44:34.228Z,99740.00
2018-07-07T08:46:48.819Z,99735.00
2018-07-07T08:48:54.926Z,99730.00
2018-07-07T08:50:59.771Z,99748.00
2018-07-07T08:53:06.700Z,99738.00
2018-07-07T08:55:17.831Z,99734.00
2018-07-07T08:57:24.660Z,99731.00
2018-07-07T08:59:33.552Z,99721.00
2018-07-07T09:01:38.168Z,99730.00
2018-07-07T09:03:41.706Z,99728.00
2018-07-07T09:05:49.764Z,99731.00
2018-07-07T09:07:54.356Z,99728.00
2018-07-07T09:10:00.238Z,99732.00
2018-07-07T09:12:13.900Z,99752.00
2018-07-07T09:14:23.211Z,99721.00
2018-07-07T09:16:27.225Z,99727.00
2018-07-07T09:18:31.718Z,99725.00
2018-07-07T09:20:35.541Z,99735.00
2018-07-07T09:25:20.699Z,99718.00
2018-07-07T09:27:29.978Z,99702.00
2018-07-07T09:29:39.580Z,99690.00
2018-07-07T09:31:45.234Z,99720.00
2018-07-07T09:33:57.859Z,99728.00
2018-07-07T09:36:10.465Z,99701.00
2018-07-07T09:38:21.853Z,99692.00
2018-07-07T09:42:43.414Z,99732.00
2018-07-07T09:44:49.211Z,99705.00
2018-07-07T09:46:54.935Z,99703.00
2018-07-07T09:49:06.729Z,99692.00
2018-07-07T09:51:14.492Z,99689.00
2018-07-07T09:53:22.950Z,99697.00
2018-07-07T09:55:32.090Z,99701.00
2018-07-07T09:57:38.996Z,99691.00
2018-07-07T09:59:47.880Z,99698.00
2018-07-07T10:01:53.243Z,99695.00
2018-07-07T10:04:01.464Z,99687.00
2018-07-07T10:06:07.527Z,99678.00
2018-07-07T10:08:18.017Z,99694.00
2018-07-07T10:10:26.834Z,99684.00
2018-07-07T10:12:37.584Z,99681.00
2018-07-07T10:14:42.008Z,99713.00
2018-07-07T10:16:49.560Z,99700.00
2018-07-07T10:18:54.912Z,99706.00
2018-07-07T10:21:02.900Z,99697.00
2018-07-07T10:23:10.309Z,99685.00
2018-07-07T10:25:25.274Z,99685.00
2018-07-07T10:27:34.354Z,99694.00
2018-07-07T10:29:42.738Z,99689.00
2018-07-07T10:31:48.019Z,99685.00
2018-07-07T10:33:53.354Z,99666.00
2018-07-07T10:36:01.709Z,99686.00
2018-07-07T10:38:12.320Z,99687.00
2018-07-07T10:40:25.758Z,99670.00
2018-07-07T10:42:30.941Z,99668.00
2018-07-07T10:44:35.259Z,99683.00
2018-07-07T10:46:40.486Z,99668.00
2018-07-07T10:48:46.175Z,99676.00
2018-07-07T10:50:50.123Z,99679.00
2018-07-07T10:52:53.818Z,99661.00
2018-07-07T10:54:57.849Z,99671.00
2018-07-07T10:57:01.409Z,99663.00
2018-07-07T10:59:05.745Z,99647.00
2018-07-07T11:01:13.556Z,99650.00
2018-07-07T11:03:21.193Z,99659.00
2018-07-07T11:05:25.239Z,99648.00
2018-07-07T11:07:29.154Z,99643.00
2018-07-07T11:09:32.817Z,99655.00
2018-07-07T11:11:37.311Z,99650.00
2018-07-07T11:13:41.285Z,99645.00
2018-07-07T11:15:44.833Z,99654.00
2018-07-07T11:17:48.584Z,99669.00
2018-07-07T11:19:52.666Z,99644.00
2018-07-07T11:21:56.463Z,99663.00
2018-07-07T11:24:00.300Z,99659.00
2018-07-07T11:26:04.774Z,99634.00
2018-07-07T11:28:12.342Z,99653.00
2018-07-07T11:30:17.904Z,99640.00
2018-07-07T11:32:22.916Z,99634.00
2018-07-07T11:34:26.421Z,99644.00
2018-07-07T11:36:29.934Z,99637.00
2018-07-07T11:38:34.004Z,99634.00
2018-07-07T11:40:37.600Z,99629.00
2018-07-07T11:42:42.663Z,99653.00
2018-07-07T11:44:47.075Z,99652.00
2018-07-07T11:46:51.123Z,99642.00
2018-07-07T11:48:55.497Z,99659.00
2018-07-07T11:51:00.248Z,99642.00
2018-07-07T11:53:05.014Z,99634.00
2018-07-07T11:55:13.403Z,99645.00
2018-07-07T11:57:19.004Z,99644.00
2018-07-07T11:59:24.984Z,99639.00
2018-07-07T12:01:28.648Z,99617.00
2018-07-07T12:03:32.569Z,99618.00
2018-07-07T12:05:36.041Z,99611.00
2018-07-07T12:07:40.519Z,99621.00
2018-07-07T12:09:44.490Z,99609.00
2018-07-07T12:11:48.254Z,99619.00
2018-07-07T12:13:51.894Z,99626.00
2018-07-07T12:15:55.778Z,99640.00
2018-07-07T12:17:59.336Z,99621.00
2018-07-07T12:20:02.875Z,99630.00
2018-07-07T12:22:09.450Z,99632.00
2018-07-07T12:24:17.298Z,99649.00
2018-07-07T12:26:23.078Z,99639.00
2018-07-07T12:28:26.904Z,99624.00
2018-07-07T12:30:30.418Z,99618.00
2018-07-07T12:32:33.904Z,99639.00
2018-07-07T12:34:37.654Z,99636.00
2018-07-07T12:36:41.169Z,99646.00
2018-07-07T12:38:44.793Z,99625.00
2018-07-07T12:40:48.536Z,99616.00
2018-07-07T12:42:51.940Z,99616.00
2018-07-07T12:44:55.415Z,99637.00
2018-07-07T12:46:58.909Z,99645.00
2018-07-07T12:49:02.399Z,99618.00
2018-07-07T12:51:09.333Z,99614.00
2018-07-07T12:53:15.491Z,99613.00
2018-07-07T12:55:21.435Z,99620.00
2018-07-07T12:57:26.531Z,99618.00
2018-07-07T12:59:30.335Z,99631.00
2018-07-07T13:01:33.817Z,99632.00
2018-07-07T13:03:37.222Z,99624.00
2018-07-07T13:05:41.047Z,99630.00
2018-07-07T13:07:44.528Z,99629.00
2018-07-07T13:09:47.984Z,99627.00
2018-07-07T13:11:51.658Z,99638.00
2018-07-07T13:13:55.161Z,99628.00
2018-07-07T13:15:58.717Z,99618.00
2018-07-07T13:18:03.517Z,99608.00
2018-07-07T13:20:10.258Z,99611.00
2018-07-07T13:22:20.221Z,99617.00
2018-07-07T13:24:24.345Z,99617.00
2018-07-07T13:26:30.101Z,99623.00
2018-07-07T13:28:33.585Z,99614.00
2018-07-07T13:30:37.724Z,99595.00
2018-07-07T13:32:41.159Z,99604.00
2018-07-07T13:34:44.660Z,99607.00
2018-07-07T13:36:48.248Z,99638.00
2018-07-07T13:38:52.124Z,99635.00
2018-07-07T13:40:55.659Z,99639.00
2018-07-07T13:42:59.120Z,99624.00
2018-07-07T13:45:04.873Z,99625.00
2018-07-07T13:47:11.857Z,99655.00
2018-07-07T13:49:20.371Z,99626.00
2018-07-07T13:51:25.972Z,99603.00
2018-07-07T13:53:29.570Z,99613.00
2018-07-07T13:55:33.403Z,99603.00
2018-07-07T13:57:37.075Z,99589.00
2018-07-07T13:59:40.749Z,99596.00
2018-07-07T14:01:45.121Z,99591.00
2018-07-07T14:03:48.963Z,99583.00
2018-07-07T14:05:52.687Z,99587.00
2018-07-07T14:07:56.063Z,99558.00
2018-07-07T14:10:00.858Z,99573.00
2018-07-07T14:12:04.864Z,99574.00
2018-07-07T14:14:11.856Z,99546.00
2018-07-07T14:16:18.899Z,99553.00
2018-07-07T14:18:24.330Z,99535.00
2018-07-07T14:21:52.807Z,99532.00
2018-07-07T14:23:57.099Z,99557.00
2018-07-07T14:26:02.613Z,99544.00
2018-07-07T14:28:09.209Z,99580.00
2018-07-07T14:30:15.969Z,99558.00
2018-07-07T14:32:25.283Z,99550.00
2018-07-07T14:34:29.089Z,99556.00
2018-07-07T14:36:32.909Z,99552.00
2018-07-07T14:38:37.597Z,99550.00
2018-07-07T14:40:50.947Z,99536.00
2018-07-07T14:42:56.956Z,99536.00
2018-07-07T14:45:01.009Z,99542.00
2018-07-07T14:47:04.919Z,99528.00
2018-07-07T14:49:11.081Z,99522.00
2018-07-07T14:51:15.963Z,99559.00
2018-07-07T14:53:20.593Z,99547.00
2018-07-07T14:55:25.695Z,99529.00
2018-07-07T14:57:29.957Z,99541.00
2018-07-07T14:59:33.626Z,99528.00
2018-07-07T15:01:37.450Z,99532.00
2018-07-07T15:03:41.675Z,99520.00
2018-07-07T15:05:46.320Z,99537.00
2018-07-07T15:07:50.073Z,99550.00
2018-07-07T15:09:54.735Z,99536.00
2018-07-07T15:12:03.396Z,99533.00
2018-07-07T15:14:09.914Z,99533.00
2018-07-07T15:16:16.425Z,99536.00
2018-07-07T15:18:23.628Z,99520.00
2018-07-07T15:20:27.404Z,99521.00
2018-07-07T15:22:31.197Z,99520.00
2018-07-07T15:24:35.131Z,99525.00
2018-07-07T15:26:38.597Z,99524.00
2018-07-07T15:28:42.844Z,99515.00
2018-07-07T15:30:47.032Z,99528.00
2018-07-07T15:32:50.808Z,99527.00
2018-07-07T15:34:55.599Z,99524.00
2018-07-07T15:36:59.348Z,99514.00
2018-07-07T15:39:04.491Z,99518.00
2018-07-07T15:41:12.767Z,99536.00
2018-07-07T15:43:17.814Z,99533.00
2018-07-07T15:45:26.529Z,99529.00
2018-07-07T15:47:30.842Z,99510.00
2018-07-07T15:49:34.760Z,99528.00
2018-07-07T15:51:38.684Z,99524.00
2018-07-07T15:55:53.811Z,99510.00
2018-07-07T15:57:58.362Z,99503.00
2018-07-07T16:00:02.476Z,99512.00
2018-07-07T16:02:06.977Z,99517.00
2018-07-07T16:04:15.414Z,99507.00
2018-07-07T16:06:22.793Z,99498.00
2018-07-07T16:08:30.221Z,99516.00
2018-07-07T16:10:34.311Z,99507.00
2018-07-07T16:12:40.268Z,99501.00
2018-07-07T16:14:44.438Z,99502.00
2018-07-07T16:16:48.309Z,99497.00
2018-07-07T16:18:51.762Z,99507.00
2018-07-07T16:20:55.220Z,99514.00
2018-07-07T16:22:58.826Z,99495.00
2018-07-07T16:25:03.312Z,99502.00
2018-07-07T16:27:12.332Z,99487.00
2018-07-07T16:29:25.950Z,99487.00
2018-07-07T16:31:30.718Z,99500.00
2018-07-07T16:33:35.168Z,99506.00
2018-07-07T16:35:45.980Z,99495.00
2018-07-07T16:37:50.102Z,99510.00
2018-07-07T16:40:01.613Z,99480.00
2018-07-07T16:42:06.061Z,99482.00
2018-07-07T16:44:13.993Z,99512.00
2018-07-07T16:46:21.698Z,99499.00
2018-07-07T16:48:26.216Z,99504.00
2018-07-07T16:50:36.592Z,99501.00
2018-07-07T16:52:40.663Z,99493.00
2018-07-07T16:54:45.316Z,99490.00
2018-07-07T16:56:51.019Z,99493.00
2018-07-07T16:58:56.308Z,99486.00
2018-07-07T17:01:00.306Z,99496.00
2018-07-07T17:03:05.482Z,99496.00
2018-07-07T17:05:13.478Z,99488.00
2018-07-07T17:07:18.876Z,99515.00
2018-07-07T17:09:24.602Z,99504.00
2018-07-07T17:11:29.538Z,99498.00
2018-07-07T17:13:35.064Z,99494.00
2018-07-07T17:15:39.270Z,99498.00
2018-07-07T17:17:43.292Z,99491.00
2018-07-07T17:19:47.699Z,99502.00
2018-07-07T17:21:52.233Z,99495.00
2018-07-07T17:23:56.885Z,99507.00
2018-07-07T17:26:00.853Z,99499.00
2018-07-07T17:28:07.320Z,99487.00
2018-07-07T17:30:25.289Z,99501.00
2018-07-07T17:32:31.226Z,99490.00
2018-07-07T17:34:35.407Z,99500.00
2018-07-07T17:36:39.869Z,99494.00
2018-07-07T17:38:43.483Z,99496.00
2018-07-07T17:40:49.099Z,99509.00
2018-07-07T17:42:57.892Z,99484.00
2018-07-07T17:45:03.501Z,99506.00
2018-07-07T17:47:11.131Z,99526.00
2018-07-07T17:49:17.537Z,99524.00
2018-07-07T17:51:23.084Z,99523.00
2018-07-07T17:53:28.342Z,99492.00
2018-07-07T17:55:32.504Z,99511.00
2018-07-07T17:57:36.919Z,99494.00
2018-07-07T17:59:40.898Z,99515.00
2018-07-07T18:01:44.865Z,99538.00
2018-07-07T18:03:49.447Z,99532.00
2018-07-07T18:05:53.226Z,99519.00
2018-07-07T18:07:56.632Z,99520.00
2018-07-07T18:10:00.067Z,99526.00
2018-07-07T18:12:04.797Z,99526.00
2018-07-07T18:14:12.002Z,99522.00
2018-07-07T18:16:17.942Z,99531.00
2018-07-07T18:18:24.029Z,99531.00
2018-07-07T18:20:28.320Z,99530.00
2018-07-07T18:22:31.899Z,99530.00
2018-07-07T18:24:35.728Z,99531.00
2018-07-07T18:26:39.287Z,99530.00
2018-07-07T18:28:47.431Z,99528.00
2018-07-07T18:30:51.744Z,99522.00
2018-07-07T18:32:57.096Z,99535.00
2018-07-07T18:35:00.906Z,99537.00
2018-07-07T18:37:12.496Z,99541.00
2018-07-07T18:39:17.824Z,99539.00
2018-07-07T18:41:22.435Z,99530.00
2018-07-07T18:43:26.215Z,99527.00
2018-07-07T18:45:29.748Z,99547.00
2018-07-07T18:47:33.176Z,99535.00
2018-07-07T18:49:37.613Z,99531.00
2018-07-07T18:51:41.323Z,99538.00
2018-07-07T18:53:45.655Z,99538.00
2018-07-07T18:55:50.997Z,99537.00
2018-07-07T18:57:54.773Z,99539.00
2018-07-07T19:00:00.768Z,99541.00
2018-07-07T19:02:04.822Z,99535.00
2018-07-07T19:04:09.435Z,99538.00
2018-07-07T19:06:16.416Z,99537.00
2018-07-07T19:08:25.172Z,99535.00
2018-07-07T19:10:29.680Z,99544.00
2018-07-07T19:12:35.780Z,99546.00
2018-07-07T19:14:40.378Z,99540.00
2018-07-07T19:16:45.088Z,99536.00
2018-07-07T19:18:50.189Z,99536.00
2018-07-07T19:23:07.888Z,99537.00
2018-07-07T19:25:20.317Z,99540.00
2018-07-07T19:27:27.071Z,99542.00
2018-07-07T19:29:31.141Z,99538.00
2018-07-07T19:31:40.363Z,99540.00
2018-07-07T19:33:49.714Z,99550.00
2018-07-07T19:35:59.525Z,99544.00
2018-07-07T19:38:03.496Z,99553.00
2018-07-07T19:40:09.782Z,99550.00
2018-07-07T19:42:15.412Z,99551.00
2018-07-07T19:44:22.188Z,99562.00
2018-07-07T19:46:27.184Z,99560.00
2018-07-07T19:48:31.783Z,99560.00
2018-07-07T19:50:47.224Z,99560.00
2018-07-07T19:52:51.555Z,99568.00
2018-07-07T19:57:12.751Z,99568.00
2018-07-07T19:59:20.199Z,99571.00
2018-07-07T20:03:40.816Z,99567.00
2018-07-07T20:05:44.652Z,99570.00
2018-07-07T20:07:48.585Z,99573.00
2018-07-07T20:09:54.300Z,99573.00
2018-07-07T20:11:59.174Z,99575.00
2018-07-07T20:14:04.344Z,99575.00
2018-07-07T20:16:17.004Z,99572.00
2018-07-07T20:18:37.677Z,99579.00
2018-07-07T20:22:54.496Z,99580.00
2018-07-07T20:25:09.575Z,99571.00
2018-07-07T20:27:22.155Z,99582.00
2018-07-07T20:29:28.324Z,99586.00
2018-07-07T20:31:37.532Z,99585.00
2018-07-07T20:33:42.984Z,99586.00
2018-07-07T20:35:47.445Z,99589.00
2018-07-07T20:37:53.297Z,99588.00
2018-07-07T20:39:57.051Z,99586.00
2018-07-07T20:42:00.586Z,99598.00
2018-07-07T20:44:05.300Z,99592.00
2018-07-07T20:46:12.845Z,99591.00
2018-07-07T20:48:18.025Z,99597.00
2018-07-07T20:50:25.608Z,99594.00
2018-07-07T20:52:30.989Z,99595.00
2018-07-07T20:54:35.426Z,99595.00
2018-07-07T20:56:39.650Z,99601.00
2018-07-07T20:58:43.506Z,99598.00
2018-07-07T21:00:47.044Z,99600.00
2018-07-07T21:02:51.186Z,99605.00
2018-07-07T21:04:55.281Z,99602.00
2018-07-07T21:06:59.237Z,99603.00
2018-07-07T21:09:05.359Z,99602.00
2018-07-07T21:11:14.551Z,99601.00
2018-07-07T21:13:20.258Z,99603.00
2018-07-07T21:15:24.925Z,99604.00
2018-07-07T21:17:28.553Z,99597.00
2018-07-07T21:19:32.644Z,99596.00
2018-07-07T21:21:36.855Z,99601.00
2018-07-07T21:23:40.791Z,99600.00
2018-07-07T21:25:44.391Z,99598.00
2018-07-07T21:27:49.807Z,99596.00
2018-07-07T21:29:53.826Z,99606.00
2018-07-07T21:31:57.522Z,99606.00
2018-07-07T21:34:05.515Z,99605.00
2018-07-07T21:36:15.317Z,99604.00
2018-07-07T21:38:25.715Z,99603.00
2018-07-07T21:40:32.668Z,99605.00
2018-07-07T21:42:41.259Z,99604.00
2018-07-07T21:44:46.286Z,99604.00
2018-07-07T21:46:50.729Z,99605.00
2018-07-07T21:49:01.067Z,99603.00
2018-07-07T21:51:06.568Z,99607.00
2018-07-07T21:53:17.118Z,99612.00
2018-07-07T21:55:28.025Z,99609.00
2018-07-07T21:57:42.817Z,99605.00
2018-07-07T21:59:56.294Z,99613.00
2018-07-07T22:02:10.786Z,99610.00
2018-07-07T22:04:24.697Z,99618.00
2018-07-07T22:06:37.919Z,99613.00
2018-07-07T22:08:44.522Z,99617.00
2018-07-07T22:11:00.746Z,99621.00
2018-07-07T22:13:20.953Z,99615.00
2018-07-07T22:15:35.796Z,99621.00
2018-07-07T22:17:55.363Z,99621.00
2018-07-07T22:19:59.722Z,99621.00
2018-07-07T22:22:12.747Z,99619.00
2018-07-07T22:24:22.606Z,99620.00
2018-07-07T22:26:33.118Z,99616.00
2018-07-07T22:28:37.692Z,99624.00
2018-07-07T22:30:41.447Z,99618.00
2018-07-07T22:32:45.601Z,99624.00
2018-07-07T22:34:49.754Z,99622.00
2018-07-07T22:36:53.984Z,99626.00
2018-07-07T22:38:58.169Z,99626.00
2018-07-07T22:41:03.000Z,99630.00
2018-07-07T22:43:12.942Z,99628.00
2018-07-07T22:45:19.332Z,99629.00
2018-07-07T22:47:24.412Z,99629.00
2018-07-07T22:49:28.655Z,99629.00
2018-07-07T22:51:33.291Z,99626.00
2018-07-07T22:53:39.124Z,99616.00
2018-07-07T22:55:42.764Z,99628.00
2018-07-07T22:57:53.215Z,99621.00
2018-07-07T22:59:57.727Z,99626.00
2018-07-07T23:02:01.512Z,99625.00
2018-07-07T23:04:08.919Z,99625.00
2018-07-07T23:06:23.350Z,99618.00
2018-07-07T23:08:28.040Z,99617.00
2018-07-07T23:10:34.356Z,99624.00
2018-07-07T23:12:42.864Z,99626.00
2018-07-07T23:14:46.695Z,99625.00
2018-07-07T23:16:51.792Z,99622.00
